createdAt,value
2022-10-16T00:03:37.412Z,7.4
2022-10-16T00:13:37.470Z,7.22
2022-10-16T00:23:37.403Z,7.26
2022-10-16T00:33:37.444Z,7.41
2022-10-16T00:43:37.436Z,7.26
2022-10-16T00:53:37.405Z,7.14
2022-10-16T01:03:37.420Z,6.98
2022-10-16T01:13:37.425Z,6.79
2022-10-16T01:23:37.388Z,6.64
2022-10-16T01:33:37.433Z,6.57
2022-10-16T01:43:37.420Z,6.56
2022-10-16T01:53:37.426Z,6.59
2022-10-16T02:03:37.392Z,6.59
2022-10-16T02:13:37.410Z,6.61
2022-10-16T02:23:37.413Z,6.68
2022-10-16T02:33:37.430Z,6.6
2022-10-16T02:43:37.370Z,6.38
2022-10-16T02:53:37.419Z,6.36
2022-10-16T03:03:37.409Z,6.5
2022-10-16T03:13:37.403Z,6.64
2022-10-16T03:23:37.387Z,6.62
2022-10-16T03:33:37.390Z,6.27
2022-10-16T03:43:37.390Z,6.1
2022-10-16T03:53:37.405Z,5.97
2022-10-16T04:03:37.410Z,5.96
2022-10-16T04:13:37.391Z,6.01
2022-10-16T04:23:37.370Z,6.29
2022-10-16T04:33:37.397Z,6.6
2022-10-16T04:43:37.342Z,6.35
2022-10-16T04:53:37.383Z,6.29
2022-10-16T05:03:37.363Z,6.42
2022-10-16T05:13:37.373Z,6.25
2022-10-16T05:23:37.355Z,6.04
2022-10-16T05:33:37.442Z,5.81
2022-10-16T05:43:37.342Z,5.91
2022-10-16T05:53:37.421Z,6.13
2022-10-16T06:03:37.357Z,6.21
2022-10-16T06:13:37.379Z,6.36
2022-10-16T06:23:37.366Z,6.72
2022-10-16T06:33:37.384Z,6.93
2022-10-16T06:43:37.327Z,6.98
2022-10-16T07:03:37.381Z,8.06
2022-10-16T07:13:37.334Z,8.84
2022-10-16T07:23:37.344Z,9.26
2022-10-16T07:33:37.332Z,9.7
2022-10-16T07:43:37.323Z,9.98
2022-10-16T07:53:37.300Z,10.94
2022-10-16T08:03:37.350Z,11.3
2022-10-16T08:13:37.311Z,11.63
2022-10-16T08:23:37.348Z,11.96
2022-10-16T08:33:37.305Z,12.33
2022-10-16T08:43:37.299Z,12.64
2022-10-16T08:53:37.282Z,12.93
2022-10-16T09:03:37.334Z,13.5
2022-10-16T09:13:37.248Z,14.24
2022-10-16T09:23:37.301Z,14.46
2022-10-16T09:33:37.260Z,15.05
2022-10-16T09:43:37.266Z,15.6
2022-10-16T09:53:37.232Z,16.35
2022-10-16T10:03:37.263Z,17.5
2022-10-16T10:13:37.219Z,17.85
2022-10-16T10:23:37.251Z,18.5
2022-10-16T10:33:37.208Z,19.33
2022-10-16T10:43:37.235Z,19.41
2022-10-16T10:53:37.213Z,19.66
2022-10-16T11:03:37.204Z,19.75
2022-10-16T11:13:37.170Z,20.21
2022-10-16T11:23:37.167Z,20.69
2022-10-16T11:33:37.125Z,19.6
2022-10-16T11:43:37.175Z,18.95
2022-10-16T11:53:37.147Z,18.99
2022-10-16T12:03:37.239Z,19.12
2022-10-16T12:13:37.093Z,19.06
2022-10-16T12:23:37.133Z,19.2
2022-10-16T12:33:37.088Z,19.41
2022-10-16T12:43:37.125Z,19.44
2022-10-16T12:53:37.054Z,19.58
2022-10-16T13:03:37.096Z,19.73
2022-10-16T13:13:37.111Z,19.93
2022-10-16T13:33:37.073Z,20.1
2022-10-16T13:43:37.026Z,20.33
2022-10-16T13:53:37.039Z,20.32
2022-10-16T14:03:37.016Z,20.21
2022-10-16T14:13:37.045Z,20.15
2022-10-16T14:23:36.990Z,20
2022-10-16T14:33:37.022Z,19.95
2022-10-16T14:43:36.962Z,19.77
2022-10-16T14:53:36.972Z,19.61
2022-10-16T15:03:36.968Z,19.44
2022-10-16T15:13:36.973Z,19.23
2022-10-16T15:23:36.921Z,18.76
2022-10-16T15:33:38.739Z,18.38
2022-10-16T15:43:36.907Z,17.9
2022-10-16T15:53:36.911Z,17.2
2022-10-16T16:03:36.926Z,16.49
2022-10-16T16:13:36.912Z,15.72
2022-10-16T16:23:36.897Z,15.25
2022-10-16T16:33:36.899Z,14.86
2022-10-16T16:43:36.853Z,14.31
2022-10-16T16:53:36.877Z,13.79
2022-10-16T17:03:36.883Z,13.42
2022-10-16T17:13:36.869Z,13.13
2022-10-16T17:23:36.852Z,12.88
2022-10-16T17:33:36.890Z,12.56
2022-10-16T17:43:36.826Z,12.31
2022-10-16T17:53:36.879Z,12.12
2022-10-16T18:03:36.831Z,11.95
2022-10-16T18:13:36.844Z,11.78
2022-10-16T18:23:36.817Z,11.56
2022-10-16T18:33:36.839Z,11.38
2022-10-16T18:43:36.832Z,11.16
2022-10-16T18:53:36.834Z,10.87
2022-10-16T19:03:36.778Z,10.46
2022-10-16T19:13:36.796Z,10.39
2022-10-16T19:23:36.786Z,10.42
2022-10-16T19:33:36.810Z,10.4
2022-10-16T19:43:36.772Z,10.17
2022-10-16T19:53:36.801Z,9.97
2022-10-16T20:03:36.774Z,9.86
2022-10-16T20:13:38.485Z,9.89
2022-10-16T20:23:36.750Z,9.78
2022-10-16T20:33:36.771Z,9.57
2022-10-16T20:43:36.784Z,9.5
2022-10-16T20:53:37.391Z,9.37
2022-10-16T21:03:36.750Z,9.38
2022-10-16T21:13:36.772Z,9.1
2022-10-16T21:23:36.731Z,8.95
2022-10-16T21:33:36.749Z,8.93
2022-10-16T21:43:36.719Z,8.79
2022-10-16T21:53:36.738Z,8.64
2022-10-16T22:03:36.724Z,8.42
2022-10-16T22:13:36.740Z,8.38
2022-10-16T22:23:36.733Z,8.37
2022-10-16T22:33:36.727Z,8.37
2022-10-16T22:43:36.688Z,8.27
2022-10-16T22:53:36.722Z,8.12
2022-10-16T23:03:36.695Z,8.12
2022-10-16T23:13:36.737Z,8.1
2022-10-16T23:23:36.732Z,7.97
2022-10-16T23:33:36.732Z,7.74
2022-10-16T23:43:36.681Z,7.78
2022-10-16T23:53:36.718Z,7.52
